Time,TemperatureF,DewpointF,PressureIn,WindDirection,WindDirectionDegrees,WindSpeedMPH,WindSpeedGustMPH,Humidity,HourlyPrecipIn,Conditions,Clouds,dailyrainin,SoftwareType,DateUTC
2013-08-28 00:01:00,76.0,74.3,29.77,North,11,3.3,4.5,94,0.42,,,0.04,WUHU216HW,2013-08-28 04:01:00,
2013-08-28 00:02:00,76.0,74.3,29.77,ESE,109,1.3,2.0,94,0.43,,,0.06,WUHU216HW,2013-08-28 04:02:00,
2013-08-28 00:03:00,76.0,74.3,29.78,North,8,1.0,1.3,94,0.44,,,0.08,WUHU216HW,2013-08-28 04:03:00,
2013-08-28 00:07:00,75.4,73.7,29.79,North,354,2.1,3.6,94,0.31,,,0.11,WUHU216HW,2013-08-28 04:07:00,
2013-08-28 00:10:00,75.2,73.5,29.78,East,89,0.6,1.6,94,0.26,,,0.11,WUHU216HW,2013-08-28 04:10:00,
2013-08-28 00:15:00,74.9,73.2,29.79,NE,45,0.9,1.1,94,0.25,,,0.11,WUHU216HW,2013-08-28 04:15:00,
2013-08-28 00:20:00,74.5,72.8,29.79,WNW,283,0.9,1.6,94,0.25,,,0.11,WUHU216HW,2013-08-28 04:20:00,
2013-08-28 00:25:00,74.3,72.9,29.78,East,101,1.5,2.0,96,0.11,,,0.11,WUHU216HW,2013-08-28 04:25:00,
2013-08-28 00:30:00,74.2,72.8,29.78,WSW,257,1.1,2.5,96,0.11,,,0.11,WUHU216HW,2013-08-28 04:30:00,
2013-08-28 00:35:00,74.0,72.6,29.79,West,263,1.2,2.5,96,0.11,,,0.11,WUHU216HW,2013-08-28 04:35:00,
2013-08-28 00:40:00,74.0,72.6,29.79,West,274,2.9,3.4,96,0.13,,,0.13,WUHU216HW,2013-08-28 04:40:00,
2013-08-28 00:45:00,73.8,72.4,29.79,NW,313,1.2,2.2,96,0.13,,,0.13,WUHU216HW,2013-08-28 04:45:00,
2013-08-28 00:50:00,73.8,72.4,29.79,West,270,2.4,3.6,96,0.14,,,0.14,WUHU216HW,2013-08-28 04:50:00,
2013-08-28 00:55:00,73.8,72.4,29.77,NW,304,3.3,4.7,96,0.22,,,0.22,WUHU216HW,2013-08-28 04:55:00,
2013-08-28 01:00:00,73.8,72.4,29.77,SW,228,1.1,2.2,96,0.34,,,0.35,WUHU216HW,2013-08-28 05:00:00,
2013-08-28 01:05:00,73.6,72.2,29.77,SW,217,1.7,3.8,96,0.27,,,0.36,WUHU216HW,2013-08-28 05:05:00,
2013-08-28 01:10:00,73.4,72.0,29.77,SSW,203,2.1,2.7,96,0.27,,,0.38,WUHU216HW,2013-08-28 05:10:00,
2013-08-28 01:15:00,73.3,71.9,29.76,SW,224,2.3,3.4,96,0.28,,,0.39,WUHU216HW,2013-08-28 05:15:00,
2013-08-28 01:20:00,73.3,71.9,29.76,West,277,0.4,0.9,96,0.28,,,0.39,WUHU216HW,2013-08-28 05:20:00,
2013-08-28 01:25:00,73.3,71.9,29.76,SW,226,1.1,1.8,96,0.28,,,0.39,WUHU216HW,2013-08-28 05:25:00,
2013-08-28 01:30:00,73.1,71.7,29.75,SW,224,2.9,3.4,96,0.28,,,0.39,WUHU216HW,2013-08-28 05:30:00,
2013-08-28 01:35:00,73.1,71.7,29.75,SW,229,2.7,3.4,96,0.26,,,0.39,WUHU216HW,2013-08-28 05:35:00,
2013-08-28 01:40:00,73.1,71.7,29.75,SW,220,1.8,2.2,96,0.26,,,0.39,WUHU216HW,2013-08-28 05:40:00,
2013-08-28 01:45:00,73.3,71.9,29.75,WSW,237,1.9,4.0,96,0.26,,,0.39,WUHU216HW,2013-08-28 05:45:00,
2013-08-28 01:50:00,73.3,71.6,29.75,WSW,248,4.0,4.5,94,0.24,,,0.39,WUHU216HW,2013-08-28 05:50:00,
2013-08-28 01:55:00,73.4,71.7,29.75,SW,221,3.1,4.0,94,0.15,,,0.39,WUHU216HW,2013-08-28 05:55:00,
2013-08-28 02:00:00,73.4,71.7,29.74,SW,235,2.7,4.0,94,0.04,,,0.39,WUHU216HW,2013-08-28 06:00:00,
2013-08-28 02:05:00,73.4,71.7,29.75,WSW,245,5.4,5.8,94,0.03,,,0.39,WUHU216HW,2013-08-28 06:05:00,
2013-08-28 02:10:00,73.4,71.7,29.75,SW,223,4.3,6.9,94,0.01,,,0.39,WUHU216HW,2013-08-28 06:10:00,
2013-08-28 02:15:00,73.4,71.7,29.75,WSW,247,1.3,1.6,94,0.00,,,0.39,WUHU216HW,2013-08-28 06:15:00,
2013-08-28 02:20:00,73.4,71.7,29.75,WSW,254,2.9,4.0,94,0.00,,,0.39,WUHU216HW,2013-08-28 06:20:00,
2013-08-28 02:25:00,73.4,71.7,29.75,WSW,248,2.6,4.7,94,0.00,,,0.39,WUHU216HW,2013-08-28 06:25:00,
2013-08-28 02:30:00,73.3,71.6,29.75,WNW,292,3.7,5.1,94,0.00,,,0.39,WUHU216HW,2013-08-28 06:30:00,
2013-08-28 02:35:00,73.3,71.6,29.75,West,267,2.0,2.5,94,0.00,,,0.39,WUHU216HW,2013-08-28 06:35:00,
2013-08-28 02:40:00,73.3,71.6,29.75,WSW,247,1.4,2.0,94,0.00,,,0.39,WUHU216HW,2013-08-28 06:40:00,
2013-08-28 02:45:00,73.3,71.6,29.75,West,260,2.2,2.5,94,0.00,,,0.39,WUHU216HW,2013-08-28 06:45:00,
2013-08-28 02:50:00,73.3,71.6,29.75,WSW,250,1.5,2.2,94,0.00,,,0.39,WUHU216HW,2013-08-28 06:50:00,
2013-08-28 02:55:00,73.3,71.6,29.75,WSW,241,2.0,3.1,94,0.00,,,0.39,WUHU216HW,2013-08-28 06:55:00,
2013-08-28 03:00:00,73.1,71.7,29.75,WNW,302,1.2,1.8,96,0.00,,,0.39,WUHU216HW,2013-08-28 07:00:00,
2013-08-28 03:06:00,73.1,71.4,29.75,West,263,2.7,4.0,94,0.00,,,0.39,WUHU216HW,2013-08-28 07:06:00,
2013-08-28 03:11:00,73.1,71.4,29.75,WSW,244,2.3,2.7,94,0.00,,,0.39,WUHU216HW,2013-08-28 07:11:00,
2013-08-28 03:16:00,73.1,71.7,29.75,SW,215,1.3,2.0,96,0.00,,,0.39,WUHU216HW,2013-08-28 07:16:00,
2013-08-28 03:21:00,73.1,71.7,29.75,West,269,1.8,2.5,96,0.00,,,0.39,WUHU216HW,2013-08-28 07:21:00,
2013-08-28 03:26:00,73.1,71.7,29.75,SW,228,1.1,1.6,96,0.00,,,0.39,WUHU216HW,2013-08-28 07:26:00,
2013-08-28 03:31:00,72.9,71.5,29.75,North,0,0.0,0.0,96,0.00,,,0.39,WUHU216HW,2013-08-28 07:31:00,
2013-08-28 03:36:00,72.9,71.2,29.74,West,270,0.8,1.1,94,0.00,,,0.39,WUHU216HW,2013-08-28 07:36:00,
2013-08-28 03:41:00,72.9,71.2,29.75,WNW,293,0.7,1.1,94,0.00,,,0.39,WUHU216HW,2013-08-28 07:41:00,
2013-08-28 03:46:00,72.7,71.0,29.75,WNW,293,1.1,1.8,94,0.00,,,0.39,WUHU216HW,2013-08-28 07:46:00,
2013-08-28 03:51:00,72.7,71.0,29.75,WNW,286,0.6,1.1,94,0.00,,,0.39,WUHU216HW,2013-08-28 07:51:00,
2013-08-28 03:56:00,72.7,71.0,29.75,WSW,248,1.0,1.1,94,0.00,,,0.39,WUHU216HW,2013-08-28 07:56:00,
2013-08-28 04:01:00,72.7,71.0,29.75,WSW,245,0.8,1.1,94,0.00,,,0.39,WUHU216HW,2013-08-28 08:01:00,
2013-08-28 04:06:00,72.7,71.0,29.75,WSW,249,1.5,3.4,94,0.00,,,0.39,WUHU216HW,2013-08-28 08:06:00,
2013-08-28 04:11:00,72.7,71.0,29.76,SW,221,1.3,1.6,94,0.00,,,0.39,WUHU216HW,2013-08-28 08:11:00,
2013-08-28 04:16:00,72.7,71.0,29.76,West,280,1.9,2.5,94,0.00,,,0.39,WUHU216HW,2013-08-28 08:16:00,
2013-08-28 04:21:00,72.9,71.5,29.76,WSW,241,1.5,2.0,96,0.00,,,0.39,WUHU216HW,2013-08-28 08:21:00,
2013-08-28 04:26:00,73.1,71.7,29.76,WSW,241,2.7,3.4,96,0.00,,,0.39,WUHU216HW,2013-08-28 08:26:00,
2013-08-28 04:31:00,73.1,71.7,29.76,WSW,248,2.5,3.6,96,0.00,,,0.39,WUHU216HW,2013-08-28 08:31:00,
2013-08-28 04:36:00,73.1,71.7,29.76,West,262,2.2,2.5,96,0.00,,,0.39,WUHU216HW,2013-08-28 08:36:00,
2013-08-28 04:41:00,73.1,71.7,29.76,NW,324,1.6,2.5,96,0.00,,,0.39,WUHU216HW,2013-08-28 08:41:00,
2013-08-28 04:46:00,73.1,71.7,29.76,WSW,248,0.1,0.4,96,0.00,,,0.39,WUHU216HW,2013-08-28 08:46:00,
2013-08-28 04:51:00,73.1,71.7,29.76,West,270,0.1,0.4,96,0.00,,,0.39,WUHU216HW,2013-08-28 08:51:00,
2013-08-28 04:56:00,73.1,71.7,29.76,West,261,1.4,2.0,96,0.00,,,0.39,WUHU216HW,2013-08-28 08:56:00,
2013-08-28 05:01:00,73.1,71.7,29.76,West,270,0.5,0.9,96,0.00,,,0.39,WUHU216HW,2013-08-28 09:01:00,
2013-08-28 05:06:00,73.1,71.7,29.76,West,260,0.4,0.4,96,0.00,,,0.39,WUHU216HW,2013-08-28 09:06:00,
2013-08-28 05:11:00,73.1,71.7,29.76,West,272,0.7,1.1,96,0.00,,,0.39,WUHU216HW,2013-08-28 09:11:00,
2013-08-28 05:16:00,73.1,71.7,29.76,North,0,0.6,0.7,96,0.00,,,0.39,WUHU216HW,2013-08-28 09:16:00,
2013-08-28 05:21:00,73.1,71.7,29.76,NNE,33,0.4,1.1,96,0.00,,,0.39,WUHU216HW,2013-08-28 09:21:00,
2013-08-28 05:26:00,73.1,71.7,29.76,NW,315,0.1,0.4,96,0.00,,,0.39,WUHU216HW,2013-08-28 09:26:00,
2013-08-28 05:31:00,73.1,71.7,29.76,NNW,338,0.4,0.4,96,0.00,,,0.39,WUHU216HW,2013-08-28 09:31:00,
2013-08-28 05:36:00,73.1,71.7,29.76,NNW,340,0.5,1.1,96,0.00,,,0.39,WUHU216HW,2013-08-28 09:36:00,
2013-08-28 05:41:00,73.1,71.7,29.76,WNW,293,0.5,1.1,96,0.00,,,0.39,WUHU216HW,2013-08-28 09:41:00,
2013-08-28 05:43:00,73.1,71.7,29.76,WSW,237,0.4,0.7,96,0.00,,,0.39,WUHU216HW,2013-08-28 09:43:00,
2013-08-28 05:48:00,73.1,71.7,29.76,WNW,303,0.8,1.1,96,0.00,,,0.39,WUHU216HW,2013-08-28 09:48:00,
2013-08-28 05:53:00,73.3,71.9,29.76,West,260,0.5,0.9,96,0.00,,,0.39,WUHU216HW,2013-08-28 09:53:00,
2013-08-28 05:58:00,73.1,71.7,29.76,NE,45,0.1,0.7,96,0.00,,,0.39,WUHU216HW,2013-08-28 09:58:00,
2013-08-28 06:03:00,73.3,71.9,29.76,North,0,0.0,0.0,96,0.00,,,0.39,WUHU216HW,2013-08-28 10:03:00,
2013-08-28 06:08:00,73.3,71.9,29.77,North,0,0.0,0.0,96,0.00,,,0.39,WUHU216HW,2013-08-28 10:08:00,
2013-08-28 06:13:00,73.3,71.9,29.77,North,0,0.0,0.0,96,0.00,,,0.39,WUHU216HW,2013-08-28 10:13:00,
2013-08-28 06:18:00,73.3,71.9,29.77,North,0,0.0,0.0,96,0.00,,,0.39,WUHU216HW,2013-08-28 10:18:00,
2013-08-28 06:24:00,73.3,71.9,29.78,North,0,0.9,1.1,96,0.00,,,0.39,WUHU216HW,2013-08-28 10:24:00,
2013-08-28 06:29:00,73.3,71.9,29.78,North,0,0.0,0.0,96,0.00,,,0.39,WUHU216HW,2013-08-28 10:29:00,
2013-08-28 06:34:00,73.4,72.0,29.78,North,0,0.0,0.0,96,0.00,,,0.39,WUHU216HW,2013-08-28 10:34:00,
2013-08-28 06:39:00,73.3,71.9,29.78,North,0,0.0,0.0,96,0.00,,,0.39,WUHU216HW,2013-08-28 10:39:00,
2013-08-28 06:44:00,73.3,71.9,29.78,North,0,0.0,0.0,96,0.00,,,0.39,WUHU216HW,2013-08-28 10:44:00,
2013-08-28 06:49:00,73.3,71.9,29.78,North,0,0.0,0.0,96,0.00,,,0.39,WUHU216HW,2013-08-28 10:49:00,
2013-08-28 06:54:00,73.4,72.0,29.78,North,11,1.8,2.5,96,0.00,,,0.39,WUHU216HW,2013-08-28 10:54:00,
2013-08-28 06:59:00,73.3,71.9,29.79,NNE,29,1.6,2.5,96,0.01,,,0.40,WUHU216HW,2013-08-28 10:59:00,
2013-08-28 07:04:00,73.3,71.9,29.79,North,0,0.0,0.0,96,0.01,,,0.40,WUHU216HW,2013-08-28 11:04:00,
2013-08-28 07:09:00,73.1,71.7,29.79,North,0,0.0,0.0,96,0.01,,,0.40,WUHU216HW,2013-08-28 11:09:00,
2013-08-28 07:14:00,73.1,71.7,29.79,North,0,0.0,0.0,96,0.01,,,0.40,WUHU216HW,2013-08-28 11:14:00,
2013-08-28 07:19:00,72.9,71.5,29.79,East,90,0.2,0.4,96,0.01,,,0.40,WUHU216HW,2013-08-28 11:19:00,
2013-08-28 07:24:00,73.1,71.7,29.79,East,90,0.1,0.2,96,0.01,,,0.40,WUHU216HW,2013-08-28 11:24:00,
2013-08-28 07:29:00,72.9,71.2,29.79,North,0,0.0,0.0,94,0.01,,,0.40,WUHU216HW,2013-08-28 11:29:00,
2013-08-28 07:34:00,72.9,71.2,29.79,North,0,0.0,0.0,94,0.01,,,0.40,WUHU216HW,2013-08-28 11:34:00,
2013-08-28 07:39:00,72.9,71.2,29.80,NE,43,0.7,1.8,94,0.01,,,0.40,WUHU216HW,2013-08-28 11:39:00,
2013-08-28 07:44:00,72.9,71.2,29.79,NE,45,0.9,1.1,94,0.01,,,0.40,WUHU216HW,2013-08-28 11:44:00,
2013-08-28 07:49:00,72.7,71.0,29.80,NE,45,0.0,0.2,94,0.01,,,0.40,WUHU216HW,2013-08-28 11:49:00,
2013-08-28 07:54:00,72.7,71.0,29.80,NNE,13,1.0,2.0,94,0.01,,,0.40,WUHU216HW,2013-08-28 11:54:00,
2013-08-28 07:59:00,72.7,71.0,29.81,ENE,68,0.7,1.1,94,0.00,,,0.40,WUHU216HW,2013-08-28 11:59:00,
2013-08-28 08:04:00,72.7,71.0,29.81,North,3,1.0,1.1,94,0.00,,,0.40,WUHU216HW,2013-08-28 12:04:00,
2013-08-28 08:09:00,72.7,71.0,29.81,NNE,28,1.2,1.8,94,0.00,,,0.40,WUHU216HW,2013-08-28 12:09:00,
2013-08-28 08:14:00,72.7,71.0,29.81,NNE,23,5.5,6.0,94,0.00,,,0.40,WUHU216HW,2013-08-28 12:14:00,
2013-08-28 08:19:00,72.7,71.0,29.81,NE,45,1.3,2.2,94,0.00,,,0.40,WUHU216HW,2013-08-28 12:19:00,
2013-08-28 08:24:00,72.7,71.0,29.81,East,84,1.1,1.8,94,0.00,,,0.40,WUHU216HW,2013-08-28 12:24:00,
2013-08-28 08:29:00,72.9,71.2,29.81,NE,41,3.1,4.7,94,0.00,,,0.40,WUHU216HW,2013-08-28 12:29:00,
2013-08-28 08:34:00,72.9,71.2,29.81,NNE,29,2.3,4.7,94,0.00,,,0.40,WUHU216HW,2013-08-28 12:34:00,
2013-08-28 08:39:00,73.1,71.7,29.81,NE,54,1.6,1.8,96,0.00,,,0.40,WUHU216HW,2013-08-28 12:39:00,
2013-08-28 08:44:00,73.1,71.7,29.81,NNE,24,2.9,3.4,96,0.00,,,0.40,WUHU216HW,2013-08-28 12:44:00,
2013-08-28 08:49:00,73.1,71.7,29.81,NNE,13,2.2,2.7,96,0.00,,,0.40,WUHU216HW,2013-08-28 12:49:00,
2013-08-28 08:54:00,73.1,71.7,29.81,NE,36,1.2,2.7,96,0.00,,,0.40,WUHU216HW,2013-08-28 12:54:00,
2013-08-28 08:59:00,73.1,71.7,29.81,North,10,0.8,0.9,96,0.00,,,0.40,WUHU216HW,2013-08-28 12:59:00,
2013-08-28 09:04:00,73.1,72.1,29.81,NNE,18,1.8,3.1,97,0.00,,,0.40,WUHU216HW,2013-08-28 13:04:00,
2013-08-28 09:09:00,73.1,72.1,29.81,NE,37,1.6,2.5,97,0.00,,,0.40,WUHU216HW,2013-08-28 13:09:00,
2013-08-28 09:14:00,72.7,71.3,29.82,NE,48,1.8,2.5,96,0.00,,,0.40,WUHU216HW,2013-08-28 13:14:00,
2013-08-28 09:19:00,72.7,71.3,29.82,NE,48,1.9,2.0,96,0.00,,,0.40,WUHU216HW,2013-08-28 13:19:00,
2013-08-28 09:24:00,72.7,71.3,29.82,North,11,2.6,2.7,96,0.00,,,0.40,WUHU216HW,2013-08-28 13:24:00,
2013-08-28 09:29:00,72.7,71.3,29.82,NNE,21,3.4,4.0,96,0.00,,,0.40,WUHU216HW,2013-08-28 13:29:00,
2013-08-28 09:34:00,72.7,71.3,29.82,NNE,17,1.7,1.8,96,0.00,,,0.40,WUHU216HW,2013-08-28 13:34:00,
2013-08-28 09:40:00,72.9,71.5,29.82,North,352,2.4,2.7,96,0.00,,,0.40,WUHU216HW,2013-08-28 13:40:00,
2013-08-28 09:45:00,72.9,71.5,29.82,ENE,61,1.5,2.0,96,0.00,,,0.40,WUHU216HW,2013-08-28 13:45:00,
2013-08-28 09:50:00,72.7,71.3,29.82,ENE,64,1.3,1.8,96,0.00,,,0.40,WUHU216HW,2013-08-28 13:50:00,
2013-08-28 09:55:00,72.9,71.5,29.82,ENE,68,1.0,1.1,96,0.00,,,0.40,WUHU216HW,2013-08-28 13:55:00,
2013-08-28 10:00:00,72.9,71.5,29.82,North,359,2.6,2.9,96,0.00,,,0.40,WUHU216HW,2013-08-28 14:00:00,
2013-08-28 10:05:00,72.9,71.9,29.83,NE,45,1.8,2.2,97,0.00,,,0.40,WUHU216HW,2013-08-28 14:05:00,
2013-08-28 10:10:00,73.1,72.1,29.83,NNE,24,1.3,1.8,97,0.00,,,0.40,WUHU216HW,2013-08-28 14:10:00,
2013-08-28 10:15:00,73.1,72.1,29.83,NNE,19,3.0,3.4,97,0.00,,,0.40,WUHU216HW,2013-08-28 14:15:00,
2013-08-28 10:20:00,73.3,72.3,29.83,NNE,23,1.7,2.7,97,0.00,,,0.40,WUHU216HW,2013-08-28 14:20:00,
2013-08-28 10:25:00,73.4,72.4,29.83,NNE,18,1.4,1.8,97,0.00,,,0.40,WUHU216HW,2013-08-28 14:25:00,
2013-08-28 10:30:00,73.6,72.6,29.84,North,7,2.8,3.4,97,0.00,,,0.40,WUHU216HW,2013-08-28 14:30:00,
2013-08-28 10:35:00,73.6,72.6,29.84,NE,46,2.9,4.0,97,0.00,,,0.40,WUHU216HW,2013-08-28 14:35:00,
2013-08-28 10:40:00,74.0,73.0,29.84,NNE,32,2.3,2.7,97,0.00,,,0.40,WUHU216HW,2013-08-28 14:40:00,
2013-08-28 10:45:00,74.3,73.3,29.84,NE,53,2.9,5.1,97,0.00,,,0.40,WUHU216HW,2013-08-28 14:45:00,
2013-08-28 10:50:00,74.5,73.5,29.84,NE,49,1.3,1.8,97,0.00,,,0.40,WUHU216HW,2013-08-28 14:50:00,
2013-08-28 10:55:00,74.9,73.9,29.84,NNE,23,3.2,4.5,97,0.00,,,0.40,WUHU216HW,2013-08-28 14:55:00,
2013-08-28 11:00:00,74.9,73.9,29.84,NE,53,1.5,1.8,97,0.00,,,0.40,WUHU216HW,2013-08-28 15:00:00,
2013-08-28 11:05:00,75.1,74.1,29.84,NNE,18,1.4,2.0,97,0.00,,,0.40,WUHU216HW,2013-08-28 15:05:00,
2013-08-28 11:10:00,75.2,74.2,29.85,North,355,2.3,3.4,97,0.00,,,0.40,WUHU216HW,2013-08-28 15:10:00,
2013-08-28 11:15:00,75.4,74.4,29.85,NNE,24,2.9,3.6,97,0.00,,,0.40,WUHU216HW,2013-08-28 15:15:00,
2013-08-28 11:20:00,75.6,74.6,29.85,NNE,13,1.8,2.2,97,0.00,,,0.40,WUHU216HW,2013-08-28 15:20:00,
2013-08-28 11:25:00,75.4,74.4,29.85,NE,36,2.6,3.4,97,0.00,,,0.40,WUHU216HW,2013-08-28 15:25:00,
2013-08-28 11:30:00,75.4,74.7,29.85,NE,39,1.7,2.5,98,0.00,,,0.40,WUHU216HW,2013-08-28 15:30:00,
2013-08-28 11:35:00,75.4,74.7,29.85,NE,35,2.5,4.0,98,0.00,,,0.40,WUHU216HW,2013-08-28 15:35:00,
2013-08-28 11:40:00,75.4,74.4,29.85,NNE,17,1.0,1.8,97,0.00,,,0.40,WUHU216HW,2013-08-28 15:40:00,
2013-08-28 11:45:00,76.0,75.0,29.86,NE,42,2.5,4.9,97,0.00,,,0.40,WUHU216HW,2013-08-28 15:45:00,
2013-08-28 11:50:00,76.3,75.3,29.86,NE,44,2.0,2.2,97,0.00,,,0.40,WUHU216HW,2013-08-28 15:50:00,
2013-08-28 11:55:00,76.5,75.5,29.86,ENE,66,2.5,3.4,97,0.00,,,0.40,WUHU216HW,2013-08-28 15:55:00,
2013-08-28 12:00:00,76.7,75.7,29.86,North,8,1.2,1.6,97,0.00,,,0.40,WUHU216HW,2013-08-28 16:00:00,
2013-08-28 12:05:00,76.3,74.9,29.86,ENE,78,3.1,3.6,96,0.00,,,0.40,WUHU216HW,2013-08-28 16:05:00,
2013-08-28 12:10:00,76.1,75.1,29.86,NE,54,1.5,1.8,97,0.00,,,0.40,WUHU216HW,2013-08-28 16:10:00,
2013-08-28 12:15:00,76.0,75.0,29.86,NNE,29,2.0,2.5,97,0.00,,,0.40,WUHU216HW,2013-08-28 16:15:00,
2013-08-28 12:20:00,76.0,74.6,29.86,North,8,2.3,2.5,96,0.00,,,0.40,WUHU216HW,2013-08-28 16:20:00,
2013-08-28 12:25:00,75.8,74.4,29.86,North,7,1.4,1.8,96,0.00,,,0.40,WUHU216HW,2013-08-28 16:25:00,
2013-08-28 12:30:00,76.1,74.7,29.86,NNE,14,1.7,2.9,96,0.00,,,0.40,WUHU216HW,2013-08-28 16:30:00,
2013-08-28 12:35:00,76.0,74.6,29.86,NNE,12,2.0,3.8,96,0.00,,,0.40,WUHU216HW,2013-08-28 16:35:00,
2013-08-28 12:40:00,76.0,74.6,29.86,NE,43,0.8,2.9,96,0.00,,,0.40,WUHU216HW,2013-08-28 16:40:00,
2013-08-28 12:45:00,76.1,74.7,29.86,NE,40,1.8,2.5,96,0.00,,,0.40,WUHU216HW,2013-08-28 16:45:00,
2013-08-28 12:51:00,76.3,74.9,29.87,ENE,77,1.8,2.0,96,0.00,,,0.40,WUHU216HW,2013-08-28 16:51:00,
2013-08-28 12:56:00,76.5,75.1,29.87,ENE,64,1.5,1.8,96,0.00,,,0.40,WUHU216HW,2013-08-28 16:56:00,
2013-08-28 13:01:00,76.7,75.3,29.87,NNE,33,1.5,2.5,96,0.00,,,0.40,WUHU216HW,2013-08-28 17:01:00,
2013-08-28 13:06:00,76.9,75.5,29.87,NNE,14,3.6,4.0,96,0.00,,,0.40,WUHU216HW,2013-08-28 17:06:00,
2013-08-28 13:11:00,76.7,75.3,29.87,ESE,113,2.4,2.5,96,0.00,,,0.40,WUHU216HW,2013-08-28 17:11:00,
2013-08-28 13:16:00,76.7,75.3,29.87,ENE,60,1.4,1.6,96,0.00,,,0.40,WUHU216HW,2013-08-28 17:16:00,
2013-08-28 13:21:00,76.3,74.9,29.87,NNE,29,1.4,2.0,96,0.00,,,0.40,WUHU216HW,2013-08-28 17:21:00,
2013-08-28 13:26:00,76.3,74.9,29.87,NE,38,1.5,1.8,96,0.00,,,0.40,WUHU216HW,2013-08-28 17:26:00,
2013-08-28 13:31:00,77.0,75.6,29.87,ENE,60,2.0,2.5,96,0.00,,,0.40,WUHU216HW,2013-08-28 17:31:00,
2013-08-28 13:36:00,77.8,76.0,29.87,NNE,23,1.7,2.9,94,0.00,,,0.40,WUHU216HW,2013-08-28 17:36:00,
2013-08-28 13:41:00,77.8,76.0,29.87,NE,35,2.2,3.4,94,0.00,,,0.40,WUHU216HW,2013-08-28 17:41:00,
2013-08-28 13:46:00,77.2,75.1,29.88,NE,54,3.7,4.7,93,0.00,,,0.40,WUHU216HW,2013-08-28 17:46:00,
2013-08-28 13:51:00,77.0,74.9,29.88,NNE,31,2.7,4.9,93,0.00,,,0.40,WUHU216HW,2013-08-28 17:51:00,
2013-08-28 13:56:00,76.9,75.1,29.88,NE,35,3.6,4.5,94,0.00,,,0.40,WUHU216HW,2013-08-28 17:56:00,
2013-08-28 14:01:00,76.9,75.1,29.88,NE,46,2.3,3.1,94,0.00,,,0.40,WUHU216HW,2013-08-28 18:01:00,
2013-08-28 14:06:00,77.0,75.2,29.88,East,90,2.9,4.5,94,0.00,,,0.40,WUHU216HW,2013-08-28 18:06:00,
2013-08-28 14:11:00,77.4,75.6,29.88,NNE,19,1.1,1.8,94,0.00,,,0.40,WUHU216HW,2013-08-28 18:11:00,
2013-08-28 14:16:00,77.8,75.7,29.88,NE,35,2.8,3.4,93,0.00,,,0.40,WUHU216HW,2013-08-28 18:16:00,
2013-08-28 14:21:00,77.2,75.1,29.89,NNE,33,3.8,6.3,93,0.00,,,0.40,WUHU216HW,2013-08-28 18:21:00,
2013-08-28 14:26:00,76.7,74.6,29.89,North,7,2.2,3.1,93,0.00,,,0.40,WUHU216HW,2013-08-28 18:26:00,
2013-08-28 14:31:00,77.0,75.2,29.89,NNW,347,1.6,2.5,94,0.00,,,0.40,WUHU216HW,2013-08-28 18:31:00,
2013-08-28 14:36:00,77.4,75.3,29.89,NNE,12,2.8,3.4,93,0.00,,,0.40,WUHU216HW,2013-08-28 18:36:00,
2013-08-28 14:41:00,77.9,75.8,29.89,East,80,3.3,3.6,93,0.00,,,0.40,WUHU216HW,2013-08-28 18:41:00,
2013-08-28 14:46:00,78.5,76.4,29.89,East,79,2.4,2.9,93,0.00,,,0.40,WUHU216HW,2013-08-28 18:46:00,
2013-08-28 14:51:00,78.8,76.7,29.89,North,352,1.2,1.8,93,0.00,,,0.40,WUHU216HW,2013-08-28 18:51:00,
2013-08-28 14:56:00,79.0,76.5,29.89,NNW,338,0.7,1.3,92,0.00,,,0.40,WUHU216HW,2013-08-28 18:56:00,
2013-08-28 15:01:00,79.6,77.1,29.89,NW,308,0.9,2.2,92,0.00,,,0.40,WUHU216HW,2013-08-28 19:01:00,
2013-08-28 15:06:00,80.1,77.6,29.89,NE,38,1.0,1.1,92,0.00,,,0.40,WUHU216HW,2013-08-28 19:06:00,
2013-08-28 15:11:00,80.1,77.2,29.89,NE,38,1.5,1.8,91,0.00,,,0.40,WUHU216HW,2013-08-28 19:11:00,
2013-08-28 15:16:00,79.9,77.0,29.89,NE,35,0.9,1.6,91,0.00,,,0.40,WUHU216HW,2013-08-28 19:16:00,
2013-08-28 15:21:00,79.6,76.7,29.89,NNE,28,2.3,2.9,91,0.00,,,0.40,WUHU216HW,2013-08-28 19:21:00,
2013-08-28 15:26:00,79.7,76.8,29.89,NW,324,1.4,1.8,91,0.00,,,0.40,WUHU216HW,2013-08-28 19:26:00,
2013-08-28 15:31:00,79.9,77.0,29.89,North,1,1.1,2.5,91,0.00,,,0.40,WUHU216HW,2013-08-28 19:31:00,
2013-08-28 15:36:00,80.1,77.2,29.89,North,357,1.7,3.4,91,0.00,,,0.40,WUHU216HW,2013-08-28 19:36:00,
2013-08-28 15:41:00,80.1,76.9,29.89,NW,325,0.2,0.2,90,0.00,,,0.40,WUHU216HW,2013-08-28 19:41:00,
2013-08-28 15:46:00,79.6,76.7,29.89,NNW,344,1.4,1.8,91,0.00,,,0.40,WUHU216HW,2013-08-28 19:46:00,
2013-08-28 15:51:00,79.6,76.7,29.89,NE,45,0.8,1.8,91,0.00,,,0.40,WUHU216HW,2013-08-28 19:51:00,
2013-08-28 15:56:00,79.6,76.7,29.89,ESE,115,0.4,0.7,91,0.00,,,0.40,WUHU216HW,2013-08-28 19:56:00,
2013-08-28 16:01:00,79.7,76.8,29.89,NNE,18,2.3,2.9,91,0.00,,,0.40,WUHU216HW,2013-08-28 20:01:00,
2013-08-28 16:07:00,80.1,77.2,29.89,North,10,0.5,1.1,91,0.00,,,0.40,WUHU216HW,2013-08-28 20:07:00,
2013-08-28 16:12:00,80.6,77.7,29.89,NE,45,0.2,0.4,91,0.00,,,0.40,WUHU216HW,2013-08-28 20:12:00,
2013-08-28 16:17:00,81.0,77.8,29.89,ENE,60,1.2,1.6,90,0.00,,,0.40,WUHU216HW,2013-08-28 20:17:00,
2013-08-28 16:22:00,81.4,77.8,29.89,NNE,23,0.0,0.4,89,0.00,,,0.40,WUHU216HW,2013-08-28 20:22:00,
2013-08-28 16:27:00,81.2,77.6,29.90,WNW,293,0.1,0.2,89,0.00,,,0.40,WUHU216HW,2013-08-28 20:27:00,
2013-08-28 16:32:00,80.8,77.2,29.89,West,275,0.9,1.1,89,0.00,,,0.40,WUHU216HW,2013-08-28 20:32:00,
2013-08-28 16:37:00,81.2,77.6,29.89,NE,34,0.8,1.1,89,0.00,,,0.40,WUHU216HW,2013-08-28 20:37:00,
2013-08-28 16:42:00,82.3,78.7,29.89,ENE,78,3.4,3.6,89,0.00,,,0.40,WUHU216HW,2013-08-28 20:42:00,
2013-08-28 16:47:00,83.0,79.4,29.89,East,98,1.1,1.6,89,0.00,,,0.40,WUHU216HW,2013-08-28 20:47:00,
2013-08-28 16:52:00,82.6,78.6,29.89,NNE,30,1.6,2.2,88,0.00,,,0.40,WUHU216HW,2013-08-28 20:52:00,
2013-08-28 16:57:00,81.9,77.9,29.89,North,358,1.1,1.6,88,0.00,,,0.40,WUHU216HW,2013-08-28 20:57:00,
2013-08-28 17:02:00,82.4,78.8,29.89,ENE,67,2.6,3.1,89,0.00,,,0.40,WUHU216HW,2013-08-28 21:02:00,
2013-08-28 17:07:00,83.2,78.4,29.89,NE,42,4.2,5.6,85,0.00,,,0.40,WUHU216HW,2013-08-28 21:07:00,
2013-08-28 17:12:00,82.8,77.3,29.89,ESE,106,1.6,2.7,83,0.00,,,0.40,WUHU216HW,2013-08-28 21:12:00,
2013-08-28 17:17:00,81.9,76.8,29.89,NNE,23,1.1,2.0,84,0.00,,,0.40,WUHU216HW,2013-08-28 21:17:00,
2013-08-28 17:22:00,82.3,77.5,29.89,WSW,239,1.6,2.9,85,0.00,,,0.40,WUHU216HW,2013-08-28 21:22:00,
2013-08-28 17:27:00,83.0,78.2,29.89,NNE,27,1.0,1.8,85,0.00,,,0.40,WUHU216HW,2013-08-28 21:27:00,
2013-08-28 17:32:00,83.5,78.3,29.89,NNE,30,3.4,5.8,84,0.00,,,0.40,WUHU216HW,2013-08-28 21:32:00,
2013-08-28 17:37:00,83.9,77.9,29.89,North,3,3.3,4.0,82,0.00,,,0.40,WUHU216HW,2013-08-28 21:37:00,
2013-08-28 17:42:00,83.9,78.3,29.89,ENE,61,1.2,1.8,83,0.00,,,0.40,WUHU216HW,2013-08-28 21:42:00,
2013-08-28 17:47:00,83.9,77.9,29.89,NNE,19,3.0,3.6,82,0.00,,,0.40,WUHU216HW,2013-08-28 21:47:00,
2013-08-28 17:52:00,83.9,77.9,29.89,NE,41,1.5,2.0,82,0.00,,,0.40,WUHU216HW,2013-08-28 21:52:00,
2013-08-28 17:57:00,83.7,77.3,29.90,NE,45,1.1,1.6,81,0.00,,,0.40,WUHU216HW,2013-08-28 21:57:00,
2013-08-28 18:02:00,83.2,76.8,29.90,North,7,3.3,4.0,81,0.00,,,0.40,WUHU216HW,2013-08-28 22:02:00,
2013-08-28 18:07:00,82.8,76.1,29.90,NNE,25,2.0,2.7,80,0.00,,,0.40,WUHU216HW,2013-08-28 22:07:00,
2013-08-28 18:12:00,82.8,76.5,29.90,NNE,12,3.5,4.5,81,0.00,,,0.40,WUHU216HW,2013-08-28 22:12:00,
2013-08-28 18:17:00,82.4,76.1,29.90,ENE,69,2.4,2.7,81,0.00,,,0.40,WUHU216HW,2013-08-28 22:17:00,
2013-08-28 18:22:00,82.4,76.1,29.90,NNE,16,1.5,2.5,81,0.00,,,0.40,WUHU216HW,2013-08-28 22:22:00,
2013-08-28 18:27:00,82.3,75.2,29.90,NE,46,1.8,2.5,79,0.00,,,0.40,WUHU216HW,2013-08-28 22:27:00,
2013-08-28 18:32:00,82.3,76.0,29.90,NNE,33,1.9,4.0,81,0.00,,,0.40,WUHU216HW,2013-08-28 22:32:00,
2013-08-28 18:37:00,82.1,75.8,29.91,North,350,1.5,2.0,81,0.00,,,0.40,WUHU216HW,2013-08-28 22:37:00,
2013-08-28 18:42:00,81.7,74.6,29.91,NE,42,1.8,3.1,79,0.00,,,0.40,WUHU216HW,2013-08-28 22:42:00,
2013-08-28 18:47:00,81.0,73.9,29.91,NNE,30,3.9,4.7,79,0.00,,,0.40,WUHU216HW,2013-08-28 22:47:00,
2013-08-28 18:52:00,80.5,73.8,29.91,East,84,1.3,2.0,80,0.00,,,0.40,WUHU216HW,2013-08-28 22:52:00,
2013-08-28 18:57:00,79.9,73.2,29.91,North,4,2.6,3.4,80,0.00,,,0.40,WUHU216HW,2013-08-28 22:57:00,
2013-08-28 19:02:00,79.4,73.1,29.91,East,94,1.5,1.8,81,0.00,,,0.40,WUHU216HW,2013-08-28 23:02:00,
2013-08-28 19:07:00,78.8,73.3,29.91,NNE,14,0.5,1.6,83,0.00,,,0.40,WUHU216HW,2013-08-28 23:07:00,
2013-08-28 19:12:00,78.3,72.8,29.91,NNW,338,1.1,1.8,83,0.00,,,0.40,WUHU216HW,2013-08-28 23:12:00,
2013-08-28 19:17:00,77.9,72.4,29.91,NNE,14,2.4,3.4,83,0.00,,,0.40,WUHU216HW,2013-08-28 23:17:00,
2013-08-28 19:23:00,77.6,72.5,29.91,NNE,17,3.2,4.0,84,0.00,,,0.40,WUHU216HW,2013-08-28 23:23:00,
2013-08-28 19:28:00,77.2,72.1,29.91,NNE,27,1.5,2.5,84,0.00,,,0.40,WUHU216HW,2013-08-28 23:28:00,
2013-08-28 19:33:00,76.7,71.7,29.91,North,5,1.9,2.0,84,0.00,,,0.40,WUHU216HW,2013-08-28 23:33:00,
2013-08-28 19:38:00,76.3,71.3,29.91,ENE,67,0.9,2.2,84,0.00,,,0.40,WUHU216HW,2013-08-28 23:38:00,
2013-08-28 19:43:00,75.8,71.1,29.91,SE,135,0.0,0.2,85,0.00,,,0.40,WUHU216HW,2013-08-28 23:43:00,
2013-08-28 19:48:00,75.4,71.1,29.91,North,0,0.0,0.0,87,0.00,,,0.40,WUHU216HW,2013-08-28 23:48:00,
2013-08-28 19:53:00,75.1,70.8,29.91,North,0,0.0,0.0,87,0.00,,,0.40,WUHU216HW,2013-08-28 23:53:00,
2013-08-28 19:58:00,74.7,70.8,29.91,North,0,0.0,0.0,88,0.00,,,0.40,WUHU216HW,2013-08-28 23:58:00,
2013-08-28 20:03:00,74.2,70.3,29.91,North,0,0.0,0.0,88,0.00,,,0.40,WUHU216HW,2013-08-29 00:03:00,
2013-08-28 20:08:00,73.8,70.3,29.91,North,0,0.0,0.0,89,0.00,,,0.40,WUHU216HW,2013-08-29 00:08:00,
2013-08-28 20:13:00,73.3,69.8,29.92,North,0,0.0,0.0,89,0.00,,,0.40,WUHU216HW,2013-08-29 00:13:00,
2013-08-28 20:18:00,72.7,69.6,29.92,North,0,0.0,0.0,90,0.00,,,0.40,WUHU216HW,2013-08-29 00:18:00,
2013-08-28 20:23:00,72.4,69.3,29.92,North,0,0.0,0.0,90,0.00,,,0.40,WUHU216HW,2013-08-29 00:23:00,
2013-08-28 20:28:00,71.8,68.7,29.92,North,0,0.0,0.0,90,0.00,,,0.40,WUHU216HW,2013-08-29 00:28:00,
2013-08-28 20:33:00,71.5,68.4,29.92,North,0,0.0,0.0,90,0.00,,,0.40,WUHU216HW,2013-08-29 00:33:00,
2013-08-28 20:38:00,70.9,67.8,29.92,South,180,0.3,0.4,90,0.00,,,0.40,WUHU216HW,2013-08-29 00:38:00,
2013-08-28 20:43:00,70.6,67.8,29.92,North,0,0.0,0.0,91,0.00,,,0.40,WUHU216HW,2013-08-29 00:43:00,
2013-08-28 20:48:00,70.0,67.2,29.92,North,0,0.0,0.0,91,0.00,,,0.40,WUHU216HW,2013-08-29 00:48:00,
2013-08-28 20:53:00,69.7,67.3,29.92,North,0,0.0,0.0,92,0.00,,,0.40,WUHU216HW,2013-08-29 00:53:00,
2013-08-28 20:58:00,69.1,66.7,29.93,North,0,0.0,0.0,92,0.00,,,0.40,WUHU216HW,2013-08-29 00:58:00,
2013-08-28 21:03:00,68.8,66.4,29.93,North,0,0.0,0.0,92,0.00,,,0.40,WUHU216HW,2013-08-29 01:03:00,
2013-08-28 21:08:00,68.4,66.4,29.93,North,0,0.0,0.0,93,0.00,,,0.40,WUHU216HW,2013-08-29 01:08:00,
2013-08-28 21:13:00,68.0,66.0,29.93,North,0,0.0,0.0,93,0.00,,,0.40,WUHU216HW,2013-08-29 01:13:00,
2013-08-28 21:18:00,67.7,66.0,29.94,North,0,0.0,0.0,94,0.00,,,0.40,WUHU216HW,2013-08-29 01:18:00,
2013-08-28 21:23:00,67.3,65.6,29.94,North,0,0.0,0.0,94,0.00,,,0.40,WUHU216HW,2013-08-29 01:23:00,
2013-08-28 21:28:00,67.1,65.4,29.94,North,0,0.0,0.0,94,0.00,,,0.40,WUHU216HW,2013-08-29 01:28:00,
2013-08-28 21:33:00,66.8,65.1,29.94,North,0,0.0,0.0,94,0.00,,,0.40,WUHU216HW,2013-08-29 01:33:00,
2013-08-28 21:38:00,66.6,65.3,29.94,North,0,0.0,0.0,96,0.00,,,0.40,WUHU216HW,2013-08-29 01:38:00,
2013-08-28 21:43:00,66.4,65.1,29.94,North,0,0.0,0.0,96,0.00,,,0.40,WUHU216HW,2013-08-29 01:43:00,
2013-08-28 21:48:00,66.1,64.8,29.94,North,0,0.0,0.0,96,0.00,,,0.40,WUHU216HW,2013-08-29 01:48:00,
2013-08-28 21:53:00,65.9,64.6,29.94,North,0,0.0,0.0,96,0.00,,,0.40,WUHU216HW,2013-08-29 01:53:00,
2013-08-28 21:58:00,65.7,64.7,29.95,North,0,0.0,0.0,97,0.00,,,0.40,WUHU216HW,2013-08-29 01:58:00,
2013-08-28 22:03:00,65.5,64.5,29.95,North,0,0.0,0.0,97,0.00,,,0.40,WUHU216HW,2013-08-29 02:03:00,
2013-08-28 22:08:00,65.3,64.3,29.95,North,0,0.0,0.0,97,0.00,,,0.40,WUHU216HW,2013-08-29 02:08:00,
2013-08-28 22:13:00,65.2,63.9,29.95,North,0,0.0,0.0,96,0.00,,,0.40,WUHU216HW,2013-08-29 02:13:00,
2013-08-28 22:18:00,65.0,63.7,29.95,North,0,0.0,0.0,96,0.00,,,0.40,WUHU216HW,2013-08-29 02:18:00,
2013-08-28 22:23:00,64.8,63.5,29.95,North,0,0.0,0.0,96,0.00,,,0.40,WUHU216HW,2013-08-29 02:23:00,
2013-08-28 22:29:00,64.6,63.3,29.96,North,0,0.0,0.0,96,0.00,,,0.40,WUHU216HW,2013-08-29 02:29:00,
2013-08-28 22:34:00,64.4,63.1,29.95,North,0,0.0,0.0,96,0.00,,,0.40,WUHU216HW,2013-08-29 02:34:00,
2013-08-28 22:39:00,64.4,63.1,29.96,North,0,0.0,0.0,96,0.00,,,0.40,WUHU216HW,2013-08-29 02:39:00,
2013-08-28 22:44:00,64.3,63.3,29.96,North,0,0.0,0.0,97,0.00,,,0.40,WUHU216HW,2013-08-29 02:44:00,
2013-08-28 22:49:00,64.1,63.1,29.96,North,0,0.0,0.0,97,0.00,,,0.40,WUHU216HW,2013-08-29 02:49:00,
2013-08-28 22:54:00,64.1,63.1,29.96,North,0,0.0,0.0,97,0.00,,,0.40,WUHU216HW,2013-08-29 02:54:00,
2013-08-28 22:59:00,63.9,62.9,29.96,North,0,0.0,0.0,97,0.00,,,0.40,WUHU216HW,2013-08-29 02:59:00,
2013-08-28 23:04:00,63.9,62.9,29.96,North,0,0.0,0.0,97,0.00,,,0.40,WUHU216HW,2013-08-29 03:04:00,
2013-08-28 23:09:00,63.7,62.7,29.96,North,0,0.0,0.0,97,0.00,,,0.40,WUHU216HW,2013-08-29 03:09:00,
2013-08-28 23:14:00,63.7,62.7,29.96,South,180,0.2,0.4,97,0.00,,,0.40,WUHU216HW,2013-08-29 03:14:00,
2013-08-28 23:19:00,63.5,62.5,29.96,North,0,0.0,0.0,97,0.00,,,0.40,WUHU216HW,2013-08-29 03:19:00,
2013-08-28 23:24:00,63.5,62.5,29.96,North,0,0.0,0.0,97,0.00,,,0.40,WUHU216HW,2013-08-29 03:24:00,
2013-08-28 23:29:00,63.4,62.4,29.96,North,0,0.0,0.0,97,0.00,,,0.40,WUHU216HW,2013-08-29 03:29:00,
2013-08-28 23:34:00,63.4,62.4,29.96,North,0,0.0,0.0,97,0.00,,,0.40,WUHU216HW,2013-08-29 03:34:00,
2013-08-28 23:39:00,63.4,62.4,29.96,North,0,0.0,0.0,97,0.00,,,0.40,WUHU216HW,2013-08-29 03:39:00,
2013-08-28 23:44:00,63.4,62.4,29.96,North,0,0.0,0.0,97,0.00,,,0.40,WUHU216HW,2013-08-29 03:44:00,
2013-08-28 23:49:00,63.2,62.2,29.96,North,0,0.0,0.0,97,0.00,,,0.40,WUHU216HW,2013-08-29 03:49:00,
2013-08-28 23:54:00,63.0,62.0,29.96,North,0,0.0,0.0,97,0.00,,,0.40,WUHU216HW,2013-08-29 03:54:00,
2013-08-28 23:59:00,63.0,62.0,29.96,SSW,203,0.2,0.4,97,0.00,,,0.40,WUHU216HW,2013-08-29 03:59:00,